createdAt,value
2022-11-14T00:01:54.180Z,2.40
2022-11-14T00:04:39.489Z,2.40
2022-11-14T00:07:25.108Z,2.50
2022-11-14T00:10:10.285Z,2.50
2022-11-14T00:12:55.703Z,2.50
2022-11-14T00:15:40.990Z,2.50
2022-11-14T00:18:26.722Z,2.50
2022-11-14T00:21:12.099Z,2.50
2022-11-14T00:23:57.570Z,2.40
2022-11-14T00:26:42.698Z,2.40
2022-11-14T00:29:27.656Z,2.40
2022-11-14T00:32:13.130Z,2.40
2022-11-14T00:34:58.476Z,2.50
2022-11-14T00:37:43.887Z,2.50
2022-11-14T00:40:29.794Z,2.60
2022-11-14T00:43:15.322Z,2.60
2022-11-14T00:46:00.475Z,2.60
2022-11-14T00:48:45.874Z,2.70
2022-11-14T00:51:31.391Z,2.70
2022-11-14T00:54:16.788Z,2.80
2022-11-14T00:57:02.315Z,2.80
2022-11-14T00:59:48.028Z,2.90
2022-11-14T01:02:33.458Z,2.80
2022-11-14T01:05:18.925Z,2.80
2022-11-14T01:08:04.316Z,2.90
2022-11-14T01:10:51.002Z,2.90
2022-11-14T01:13:36.393Z,2.90
2022-11-14T01:16:21.701Z,3.00
2022-11-14T01:19:07.151Z,2.90
2022-11-14T01:21:52.710Z,2.90
2022-11-14T01:24:38.269Z,2.90
2022-11-14T01:27:24.131Z,2.90
2022-11-14T01:30:09.845Z,2.90
2022-11-14T01:32:55.194Z,3.00
2022-11-14T01:35:40.695Z,3.00
2022-11-14T01:38:26.023Z,3.00
2022-11-14T01:41:13.103Z,3.10
2022-11-14T01:43:58.184Z,3.10
2022-11-14T01:46:46.671Z,3.10
2022-11-14T01:49:36.709Z,3.10
2022-11-14T01:52:21.888Z,3.20
2022-11-14T01:55:08.609Z,3.20
2022-11-14T01:57:53.813Z,3.20
2022-11-14T02:00:39.334Z,3.30
2022-11-14T02:03:24.944Z,3.20
2022-11-14T02:06:12.928Z,3.30
2022-11-14T02:09:00.355Z,3.30
2022-11-14T02:11:45.961Z,3.30
2022-11-14T02:14:31.748Z,3.30
2022-11-14T02:17:33.191Z,3.30
2022-11-14T02:20:28.495Z,3.30
2022-11-14T02:23:13.681Z,3.30
2022-11-14T02:25:59.442Z,3.20
2022-11-14T02:28:44.800Z,3.20
2022-11-14T02:31:30.262Z,3.20
2022-11-14T02:34:19.785Z,3.20
2022-11-14T02:37:05.414Z,3.20
2022-11-14T02:39:50.437Z,3.10
2022-11-14T02:42:36.056Z,3.10
2022-11-14T02:45:21.698Z,3.00
2022-11-14T02:48:07.279Z,2.90
2022-11-14T02:50:52.632Z,2.90
2022-11-14T02:53:38.102Z,2.90
2022-11-14T02:56:23.349Z,2.90
2022-11-14T02:59:08.477Z,2.90
2022-11-14T03:01:53.848Z,2.90
2022-11-14T03:04:39.259Z,3.00
2022-11-14T03:07:24.761Z,2.90
2022-11-14T03:10:11.138Z,3.00
2022-11-14T03:12:56.948Z,3.00
2022-11-14T03:15:42.321Z,3.00
2022-11-14T03:18:27.957Z,2.90
2022-11-14T03:21:17.832Z,2.90
2022-11-14T03:24:02.990Z,3.00
2022-11-14T03:26:48.390Z,3.00
2022-11-14T03:29:33.513Z,2.90
2022-11-14T03:32:18.853Z,2.90
2022-11-14T03:35:04.350Z,2.90
2022-11-14T03:37:52.701Z,2.90
2022-11-14T03:40:41.045Z,2.90
2022-11-14T03:43:26.829Z,2.90
2022-11-14T03:46:12.399Z,2.90
2022-11-14T03:48:57.836Z,2.80
2022-11-14T03:51:43.222Z,2.80
2022-11-14T03:54:28.796Z,2.80
2022-11-14T03:57:13.863Z,2.70
2022-11-14T03:59:59.289Z,2.70
2022-11-14T04:02:44.273Z,2.60
2022-11-14T04:05:29.827Z,2.60
2022-11-14T04:08:15.411Z,2.60
2022-11-14T04:11:00.915Z,2.60
2022-11-14T04:13:46.370Z,2.60
2022-11-14T04:16:31.449Z,2.70
2022-11-14T04:19:17.009Z,2.70
2022-11-14T04:22:02.158Z,2.70
2022-11-14T04:24:47.726Z,2.70
2022-11-14T04:27:33.046Z,2.60
2022-11-14T04:30:18.288Z,2.60
2022-11-14T04:33:03.847Z,2.60
2022-11-14T04:35:48.775Z,2.50
2022-11-14T04:38:34.070Z,2.50
2022-11-14T04:41:19.546Z,2.50
2022-11-14T04:44:05.045Z,2.60
2022-11-14T04:46:50.396Z,2.60
2022-11-14T04:49:35.546Z,2.60
2022-11-14T04:52:20.696Z,2.50
2022-11-14T04:55:06.242Z,2.50
2022-11-14T04:57:55.877Z,2.50
2022-11-14T05:00:41.439Z,2.50
2022-11-14T05:03:26.625Z,2.50
2022-11-14T05:06:12.113Z,2.50
2022-11-14T05:08:57.492Z,2.40
2022-11-14T05:11:42.914Z,2.40
2022-11-14T05:14:28.190Z,2.40
2022-11-14T05:17:13.533Z,2.40
2022-11-14T05:19:58.960Z,2.40
2022-11-14T05:22:44.453Z,2.40
2022-11-14T05:25:29.757Z,2.30
2022-11-14T05:28:15.214Z,2.40
2022-11-14T05:31:01.582Z,2.40
2022-11-14T05:33:47.114Z,2.40
2022-11-14T05:36:32.649Z,2.40
2022-11-14T05:39:18.008Z,2.40
2022-11-14T05:42:03.455Z,2.30
2022-11-14T05:44:48.793Z,2.30
2022-11-14T05:47:34.386Z,2.30
2022-11-14T05:50:19.840Z,2.20
2022-11-14T05:53:05.177Z,2.20
2022-11-14T05:55:50.663Z,2.20
2022-11-14T05:58:36.021Z,2.10
2022-11-14T06:01:21.503Z,2.10
2022-11-14T06:04:06.981Z,2.10
2022-11-14T06:06:52.431Z,2.10
2022-11-14T06:09:37.846Z,2.10
2022-11-14T06:12:23.216Z,2.10
2022-11-14T06:15:09.017Z,2.10
2022-11-14T06:17:54.430Z,2.10
2022-11-14T06:20:39.808Z,2.10
2022-11-14T06:23:25.243Z,2.10
2022-11-14T06:26:21.027Z,2.20
2022-11-14T06:29:07.552Z,2.20
2022-11-14T06:31:52.525Z,2.20
2022-11-14T06:34:37.842Z,2.20
2022-11-14T06:37:23.127Z,2.30
2022-11-14T06:40:08.794Z,2.20
2022-11-14T06:42:56.796Z,2.20
2022-11-14T06:45:41.938Z,2.20
2022-11-14T06:48:27.292Z,2.20
2022-11-14T06:51:13.454Z,2.20
2022-11-14T06:53:58.813Z,2.30
2022-11-14T06:56:44.007Z,2.30
2022-11-14T06:59:29.770Z,2.40
2022-11-14T07:02:21.419Z,2.40
2022-11-14T07:05:07.187Z,2.40
2022-11-14T07:07:52.529Z,2.50
2022-11-14T07:10:38.122Z,2.50
2022-11-14T07:13:23.630Z,2.50
2022-11-14T07:16:08.950Z,2.50
2022-11-14T07:18:54.329Z,2.50
2022-11-14T07:21:40.135Z,2.50
2022-11-14T07:24:25.525Z,2.60
2022-11-14T07:27:13.647Z,2.60
2022-11-14T07:29:58.930Z,2.60
2022-11-14T07:32:44.189Z,2.70
2022-11-14T07:35:29.271Z,2.80
2022-11-14T07:38:14.510Z,2.90
2022-11-14T07:41:01.829Z,2.90
2022-11-14T07:43:47.436Z,2.90
2022-11-14T07:46:32.641Z,3.00
2022-11-14T07:49:17.938Z,2.90
2022-11-14T07:52:03.220Z,2.90
2022-11-14T07:54:48.382Z,3.00
2022-11-14T07:57:38.935Z,3.10
2022-11-14T08:00:26.605Z,3.20
2022-11-14T08:03:12.019Z,3.30
2022-11-14T08:06:16.297Z,3.50
2022-11-14T08:09:01.761Z,3.60
2022-11-14T08:11:50.080Z,3.60
2022-11-14T08:14:35.290Z,3.60
2022-11-14T08:17:21.551Z,3.70
2022-11-14T08:20:08.043Z,3.80
2022-11-14T08:23:05.603Z,4.00
2022-11-14T08:25:50.879Z,4.10
2022-11-14T08:28:36.009Z,4.30
2022-11-14T08:31:21.604Z,4.50
2022-11-14T08:34:07.012Z,4.70
2022-11-14T08:36:52.174Z,5.00
2022-11-14T08:39:37.428Z,5.00
2022-11-14T08:42:22.762Z,4.90
2022-11-14T08:45:10.045Z,5.00
2022-11-14T08:47:55.646Z,5.10
2022-11-14T08:50:40.968Z,5.10
2022-11-14T08:53:26.514Z,5.20
2022-11-14T08:56:11.769Z,5.20
2022-11-14T08:58:57.213Z,5.30
2022-11-14T09:01:42.550Z,5.20
2022-11-14T09:04:28.200Z,5.30
2022-11-14T09:07:13.707Z,5.30
2022-11-14T09:09:59.143Z,5.30
2022-11-14T09:12:47.392Z,5.40
2022-11-14T09:15:33.982Z,5.40
2022-11-14T09:18:19.332Z,5.30
2022-11-14T09:21:05.730Z,5.50
2022-11-14T09:23:50.933Z,5.70
2022-11-14T09:26:36.118Z,6.00
2022-11-14T09:29:21.718Z,6.30
2022-11-14T09:32:06.944Z,6.60
2022-11-14T09:34:52.595Z,7.20
2022-11-14T09:37:37.876Z,7.60
2022-11-14T09:40:23.362Z,7.60
2022-11-14T09:43:20.562Z,8.30
2022-11-14T09:46:16.573Z,9.30
2022-11-14T09:49:01.840Z,10.40
2022-11-14T09:51:51.996Z,10.80
2022-11-14T09:54:55.927Z,10.90
2022-11-14T09:57:42.638Z,11.20
2022-11-14T10:00:29.621Z,11.30
2022-11-14T10:03:23.576Z,11.80
2022-11-14T10:06:22.685Z,12.50
2022-11-14T10:09:13.792Z,12.50
2022-11-14T10:12:01.765Z,12.30
2022-11-14T10:14:55.972Z,11.90
2022-11-14T10:18:03.934Z,11.50
2022-11-14T10:20:57.054Z,11.00
2022-11-14T10:23:42.082Z,10.70
2022-11-14T10:26:31.686Z,10.40
2022-11-14T10:29:16.737Z,10.00
2022-11-14T10:32:06.320Z,9.70
2022-11-14T10:34:51.339Z,9.50
2022-11-14T10:37:40.167Z,9.30
2022-11-14T10:40:44.511Z,9.20
2022-11-14T10:43:38.095Z,9.00
2022-11-14T10:46:27.032Z,8.90
2022-11-14T10:49:17.990Z,8.90
2022-11-14T10:52:05.845Z,8.80
2022-11-14T10:54:56.189Z,8.70
2022-11-14T10:57:42.073Z,8.70
2022-11-14T11:00:27.458Z,8.60
2022-11-14T11:03:13.135Z,8.60
2022-11-14T11:05:58.276Z,8.60
2022-11-14T11:09:02.346Z,8.50
2022-11-14T11:11:55.055Z,8.40
2022-11-14T11:14:40.250Z,8.40
2022-11-14T11:17:31.329Z,8.30
2022-11-14T11:20:28.715Z,8.30
2022-11-14T11:23:22.579Z,8.30
2022-11-14T11:26:15.803Z,8.30
2022-11-14T11:29:09.063Z,8.40
2022-11-14T11:31:56.328Z,8.40
2022-11-14T11:34:41.624Z,8.50
2022-11-14T11:37:38.215Z,8.50
2022-11-14T11:40:28.200Z,8.50
2022-11-14T11:46:45.137Z,8.50
2022-11-14T11:49:30.666Z,8.50
2022-11-14T11:52:19.889Z,8.60
2022-11-14T11:55:14.331Z,8.60
2022-11-14T11:58:02.826Z,8.70
2022-11-14T12:00:50.536Z,8.70
2022-11-14T12:03:36.611Z,8.80
2022-11-14T12:06:27.228Z,8.80
2022-11-14T12:09:19.432Z,8.80
2022-11-14T12:12:06.714Z,8.80
2022-11-14T12:14:52.167Z,8.90
2022-11-14T12:17:49.822Z,8.90
2022-11-14T12:20:39.860Z,8.90
2022-11-14T12:23:54.497Z,8.90
2022-11-14T12:27:00.335Z,8.90
2022-11-14T12:29:51.683Z,8.90
2022-11-14T12:32:46.696Z,8.90
2022-11-14T12:35:36.041Z,8.90
2022-11-14T12:38:22.602Z,9.00
2022-11-14T12:41:08.897Z,9.00
2022-11-14T12:44:13.814Z,9.00
2022-11-14T12:47:08.177Z,9.00
2022-11-14T12:49:53.617Z,9.00
2022-11-14T12:52:52.872Z,9.00
2022-11-14T12:55:43.789Z,9.00
2022-11-14T12:58:31.846Z,8.90
2022-11-14T13:01:24.371Z,9.00
2022-11-14T13:04:28.353Z,9.00
2022-11-14T13:07:13.429Z,9.00
2022-11-14T13:10:02.802Z,9.00
2022-11-14T13:13:24.347Z,9.00
2022-11-14T13:16:41.435Z,9.00
2022-11-14T13:19:45.412Z,9.00
2022-11-14T13:22:39.020Z,9.00
2022-11-14T13:25:24.641Z,9.00
2022-11-14T13:28:28.253Z,9.00
2022-11-14T13:31:16.366Z,9.00
2022-11-14T13:34:02.146Z,9.00
2022-11-14T13:36:58.369Z,9.00
2022-11-14T13:39:59.803Z,9.00
2022-11-14T13:42:50.603Z,9.00
2022-11-14T13:45:54.464Z,8.90
2022-11-14T13:48:47.635Z,8.90
2022-11-14T13:51:43.481Z,8.90
2022-11-14T13:54:29.307Z,9.00
2022-11-14T13:57:17.091Z,8.90
2022-11-14T14:00:19.765Z,8.90
2022-11-14T14:03:15.799Z,8.80
2022-11-14T14:06:05.357Z,8.80
2022-11-14T14:08:54.275Z,8.70
2022-11-14T14:11:52.537Z,8.70
2022-11-14T14:14:50.275Z,8.80
2022-11-14T14:17:38.412Z,8.80
2022-11-14T14:20:23.365Z,8.90
2022-11-14T14:23:25.413Z,8.90
2022-11-14T14:26:18.078Z,8.90
2022-11-14T14:29:12.019Z,8.90
2022-11-14T14:32:06.143Z,8.80
2022-11-14T14:34:53.818Z,8.70
2022-11-14T14:37:49.659Z,8.70
2022-11-14T14:40:36.346Z,8.60
2022-11-14T14:43:32.581Z,8.60
2022-11-14T14:46:28.981Z,8.50
2022-11-14T14:49:18.552Z,8.40
2022-11-14T14:52:19.193Z,8.40
2022-11-14T14:55:06.531Z,8.30
2022-11-14T14:57:51.610Z,8.20
2022-11-14T15:00:37.375Z,8.10
2022-11-14T15:03:23.253Z,8.10
2022-11-14T15:06:21.021Z,8.10
2022-11-14T15:09:10.728Z,8.00
2022-11-14T15:11:56.761Z,7.90
2022-11-14T15:14:42.113Z,7.90
2022-11-14T15:17:31.612Z,7.80
2022-11-14T15:20:26.843Z,7.70
2022-11-14T15:23:15.020Z,7.70
2022-11-14T15:26:03.796Z,7.60
2022-11-14T15:28:49.192Z,7.50
2022-11-14T15:31:35.824Z,7.50
2022-11-14T15:34:31.116Z,7.40
2022-11-14T15:37:16.523Z,7.30
2022-11-14T15:40:17.111Z,7.20
2022-11-14T15:43:22.243Z,7.20
2022-11-14T15:46:26.057Z,7.10
2022-11-14T15:49:14.094Z,7.10
2022-11-14T15:52:17.065Z,7.00
2022-11-14T15:55:03.675Z,6.90
2022-11-14T15:58:06.705Z,6.80
2022-11-14T16:00:55.085Z,6.80
2022-11-14T16:03:40.718Z,6.70
2022-11-14T16:06:25.985Z,6.70
2022-11-14T16:09:14.877Z,6.70
2022-11-14T16:11:59.922Z,6.70
2022-11-14T16:14:45.272Z,6.70
2022-11-14T16:17:34.612Z,6.70
2022-11-14T16:20:24.001Z,6.70
2022-11-14T16:23:12.214Z,6.60
2022-11-14T16:25:57.358Z,6.60
2022-11-14T16:28:42.653Z,6.60
2022-11-14T16:31:28.249Z,6.60
2022-11-14T16:34:18.713Z,6.60
2022-11-14T16:37:04.215Z,6.60
2022-11-14T16:39:49.802Z,6.60
2022-11-14T16:42:35.627Z,6.60
2022-11-14T16:45:21.105Z,6.60
2022-11-14T16:48:06.440Z,6.60
2022-11-14T16:50:56.505Z,6.60
2022-11-14T16:53:42.150Z,6.50
2022-11-14T16:56:27.975Z,6.40
2022-11-14T16:59:13.203Z,6.40
2022-11-14T17:01:58.743Z,6.40
2022-11-14T17:04:44.764Z,6.30
2022-11-14T17:07:32.667Z,6.30
2022-11-14T17:10:17.923Z,6.20
2022-11-14T17:13:03.336Z,6.20
2022-11-14T17:15:48.624Z,6.10
2022-11-14T17:18:38.329Z,6.10
2022-11-14T17:21:24.976Z,6.10
2022-11-14T17:24:10.367Z,6.00
2022-11-14T17:26:55.679Z,5.90
2022-11-14T17:29:41.262Z,5.80
2022-11-14T17:32:26.841Z,5.80
2022-11-14T17:35:12.018Z,5.70
2022-11-14T17:38:00.220Z,5.60
2022-11-14T17:40:46.066Z,5.50
2022-11-14T17:43:39.189Z,5.50
2022-11-14T17:46:25.523Z,5.50
2022-11-14T17:49:11.006Z,5.50
2022-11-14T17:51:56.503Z,5.50
2022-11-14T17:54:41.838Z,5.60
2022-11-14T17:57:27.409Z,5.70
2022-11-14T18:00:13.089Z,5.80
2022-11-14T18:02:58.258Z,5.80
2022-11-14T18:05:43.842Z,5.90
2022-11-14T18:08:30.127Z,6.00
2022-11-14T18:11:17.180Z,6.00
2022-11-14T18:14:02.356Z,6.10
2022-11-14T18:17:16.131Z,6.00
2022-11-14T18:19:53.122Z,6.00
2022-11-14T18:22:38.237Z,6.00
2022-11-14T18:25:23.948Z,6.00
2022-11-14T18:28:08.932Z,6.00
2022-11-14T18:30:55.647Z,6.00
2022-11-14T18:33:42.003Z,6.00
2022-11-14T18:36:27.945Z,6.00
2022-11-14T18:39:13.169Z,6.00
2022-11-14T18:42:00.440Z,6.00
2022-11-14T18:44:45.885Z,6.00
2022-11-14T18:47:31.076Z,5.90
2022-11-14T18:50:16.595Z,5.90
2022-11-14T18:53:02.042Z,5.80
2022-11-14T18:55:52.975Z,5.80
2022-11-14T18:58:41.699Z,5.70
2022-11-14T19:01:29.600Z,5.70
2022-11-14T19:04:17.289Z,5.60
2022-11-14T19:07:02.454Z,5.60
2022-11-14T19:09:48.198Z,5.60
2022-11-14T19:12:33.218Z,5.50
2022-11-14T19:15:20.923Z,5.50
2022-11-14T19:18:06.158Z,5.50
2022-11-14T19:20:58.396Z,5.40
2022-11-14T19:23:43.806Z,5.40
2022-11-14T19:26:29.294Z,5.30
2022-11-14T19:29:14.733Z,5.30
2022-11-14T19:32:00.109Z,5.30
2022-11-14T19:34:45.472Z,5.30
2022-11-14T19:37:30.700Z,5.30
2022-11-14T19:40:16.028Z,5.30
2022-11-14T19:43:06.529Z,5.30
2022-11-14T19:45:52.408Z,5.30
2022-11-14T19:48:38.400Z,5.30
2022-11-14T19:51:29.126Z,5.30
2022-11-14T19:54:14.338Z,5.20
2022-11-14T19:56:59.463Z,5.20
2022-11-14T19:59:45.330Z,5.20
2022-11-14T20:02:31.049Z,5.30
2022-11-14T20:05:17.230Z,5.30
2022-11-14T20:08:03.172Z,5.40
2022-11-14T20:10:59.198Z,5.40
2022-11-14T20:13:45.656Z,5.40
2022-11-14T20:16:32.782Z,5.40
2022-11-14T20:19:18.304Z,5.30
2022-11-14T20:22:06.361Z,5.40
2022-11-14T20:24:52.051Z,5.30
2022-11-14T20:27:37.559Z,5.40
2022-11-14T20:30:22.877Z,5.30
2022-11-14T20:33:09.012Z,5.30
2022-11-14T20:35:54.407Z,5.40
2022-11-14T20:38:40.088Z,5.40
2022-11-14T20:41:25.311Z,5.40
2022-11-14T20:44:10.684Z,5.50
2022-11-14T20:46:56.924Z,5.50
2022-11-14T20:49:43.419Z,5.50
2022-11-14T20:52:28.903Z,5.50
2022-11-14T20:55:15.724Z,5.50
2022-11-14T20:58:00.828Z,5.60
2022-11-14T21:00:46.497Z,5.60
2022-11-14T21:03:31.939Z,5.70
2022-11-14T21:06:17.843Z,5.80
2022-11-14T21:09:02.874Z,5.90
2022-11-14T21:11:48.235Z,6.00
2022-11-14T21:14:34.399Z,6.10
2022-11-14T21:17:19.727Z,6.10
2022-11-14T21:20:05.874Z,6.10
2022-11-14T21:22:51.286Z,6.10
2022-11-14T21:25:36.443Z,6.10
2022-11-14T21:28:21.844Z,6.20
2022-11-14T21:31:14.799Z,6.20
2022-11-14T21:34:01.368Z,6.30
2022-11-14T21:36:48.241Z,6.30
2022-11-14T21:39:33.423Z,6.40
2022-11-14T21:42:19.044Z,6.40
2022-11-14T21:45:04.907Z,6.40
2022-11-14T21:47:50.001Z,6.40
2022-11-14T21:50:35.442Z,6.50
2022-11-14T21:53:21.041Z,6.50
2022-11-14T21:56:09.131Z,6.60
2022-11-14T21:59:13.644Z,6.60
2022-11-14T22:02:17.881Z,6.60
2022-11-14T22:05:03.614Z,6.60
2022-11-14T22:07:48.797Z,6.60
2022-11-14T22:10:34.521Z,6.60
2022-11-14T22:13:20.250Z,6.60
2022-11-14T22:16:06.390Z,6.60
2022-11-14T22:18:52.309Z,6.70
2022-11-14T22:21:37.746Z,6.60
2022-11-14T22:24:23.759Z,6.50
2022-11-14T22:27:09.189Z,6.50
2022-11-14T22:29:54.254Z,6.50
2022-11-14T22:32:39.843Z,6.50
2022-11-14T22:35:24.961Z,6.40
2022-11-14T22:38:10.639Z,6.40
2022-11-14T22:40:56.364Z,6.40
2022-11-14T22:43:42.293Z,6.40
2022-11-14T22:46:27.714Z,6.40
2022-11-14T22:49:17.120Z,6.50
2022-11-14T22:52:05.298Z,6.50
2022-11-14T22:54:50.656Z,6.50
2022-11-14T22:57:35.954Z,6.60
2022-11-14T23:00:21.477Z,6.60
2022-11-14T23:03:06.847Z,6.70
2022-11-14T23:05:52.369Z,6.70
2022-11-14T23:08:37.739Z,6.70
2022-11-14T23:11:24.735Z,6.70
2022-11-14T23:14:12.057Z,6.80
2022-11-14T23:16:57.311Z,6.70
2022-11-14T23:19:42.948Z,6.80
2022-11-14T23:22:28.071Z,6.80
2022-11-14T23:25:13.565Z,6.80
2022-11-14T23:27:59.035Z,6.70
2022-11-14T23:30:44.298Z,6.70
2022-11-14T23:33:30.078Z,6.60
2022-11-14T23:36:16.241Z,6.60
2022-11-14T23:39:01.505Z,6.60
2022-11-14T23:41:46.801Z,6.60
2022-11-14T23:44:32.183Z,6.60
2022-11-14T23:47:17.495Z,6.60
2022-11-14T23:50:02.987Z,6.60
2022-11-14T23:52:48.461Z,6.70
2022-11-14T23:55:34.101Z,6.70
2022-11-14T23:58:19.470Z,6.80
